sensor_id;sensor_type;location;lat;lon;timestamp;temperature;humidity
10245;DHT22;5167;52.164;10.530;2023-04-24T00:00:23;16.60;5.80
10245;DHT22;5167;52.164;10.530;2023-04-24T00:02:48;16.50;6.80
10245;DHT22;5167;52.164;10.530;2023-04-24T00:05:15;16.50;6.50
10245;DHT22;5167;52.164;10.530;2023-04-24T00:07:41;16.40;7.10
10245;DHT22;5167;52.164;10.530;2023-04-24T00:10:07;16.40;7.20
10245;DHT22;5167;52.164;10.530;2023-04-24T00:12:33;16.40;6.90
10245;DHT22;5167;52.164;10.530;2023-04-24T00:14:59;16.30;7.70
10245;DHT22;5167;52.164;10.530;2023-04-24T00:17:25;16.40;7.60
10245;DHT22;5167;52.164;10.530;2023-04-24T00:19:51;16.30;7.10
10245;DHT22;5167;52.164;10.530;2023-04-24T00:22:17;16.50;8.00
10245;DHT22;5167;52.164;10.530;2023-04-24T00:24:43;16.20;8.10
10245;DHT22;5167;52.164;10.530;2023-04-24T00:27:08;16.20;8.20
10245;DHT22;5167;52.164;10.530;2023-04-24T00:29:34;16.20;8.60
10245;DHT22;5167;52.164;10.530;2023-04-24T00:31:59;16.10;8.30
10245;DHT22;5167;52.164;10.530;2023-04-24T00:34:25;16.10;8.90
10245;DHT22;5167;52.164;10.530;2023-04-24T00:36:50;16.00;9.20
10245;DHT22;5167;52.164;10.530;2023-04-24T00:39:18;16.00;9.30
10245;DHT22;5167;52.164;10.530;2023-04-24T00:41:44;15.90;8.80
10245;DHT22;5167;52.164;10.530;2023-04-24T00:44:10;15.90;9.20
10245;DHT22;5167;52.164;10.530;2023-04-24T00:46:36;15.90;9.20
10245;DHT22;5167;52.164;10.530;2023-04-24T00:49:02;16.00;9.30
10245;DHT22;5167;52.164;10.530;2023-04-24T00:51:28;15.90;9.40
10245;DHT22;5167;52.164;10.530;2023-04-24T00:53:53;15.90;9.50
10245;DHT22;5167;52.164;10.530;2023-04-24T00:56:19;15.90;10.20
10245;DHT22;5167;52.164;10.530;2023-04-24T00:58:45;16.00;10.10
10245;DHT22;5167;52.164;10.530;2023-04-24T01:01:10;15.80;9.70
10245;DHT22;5167;52.164;10.530;2023-04-24T01:03:37;15.80;9.80
10245;DHT22;5167;52.164;10.530;2023-04-24T01:06:04;15.80;10.20
10245;DHT22;5167;52.164;10.530;2023-04-24T01:08:30;15.80;10.20
10245;DHT22;5167;52.164;10.530;2023-04-24T01:10:57;15.80;9.90
10245;DHT22;5167;52.164;10.530;2023-04-24T01:13:22;15.70;10.00
10245;DHT22;5167;52.164;10.530;2023-04-24T01:15:48;15.80;10.60
10245;DHT22;5167;52.164;10.530;2023-04-24T01:18:14;15.70;10.50
10245;DHT22;5167;52.164;10.530;2023-04-24T01:20:41;15.70;10.60
10245;DHT22;5167;52.164;10.530;2023-04-24T01:23:08;15.80;10.70
10245;DHT22;5167;52.164;10.530;2023-04-24T01:25:34;15.70;10.00
10245;DHT22;5167;52.164;10.530;2023-04-24T01:28:00;15.70;10.40
10245;DHT22;5167;52.164;10.530;2023-04-24T01:30:26;15.60;10.40
10245;DHT22;5167;52.164;10.530;2023-04-24T01:32:52;15.60;10.00
10245;DHT22;5167;52.164;10.530;2023-04-24T01:35:18;15.60;10.30
10245;DHT22;5167;52.164;10.530;2023-04-24T01:37:44;15.50;10.70
10245;DHT22;5167;52.164;10.530;2023-04-24T01:40:10;15.50;10.30
10245;DHT22;5167;52.164;10.530;2023-04-24T01:42:36;15.50;10.30
10245;DHT22;5167;52.164;10.530;2023-04-24T01:45:03;15.50;10.90
10245;DHT22;5167;52.164;10.530;2023-04-24T01:47:30;15.50;11.30
10245;DHT22;5167;52.164;10.530;2023-04-24T01:49:56;15.40;10.80
10245;DHT22;5167;52.164;10.530;2023-04-24T01:52:22;15.40;11.30
10245;DHT22;5167;52.164;10.530;2023-04-24T01:54:47;15.40;11.20
10245;DHT22;5167;52.164;10.530;2023-04-24T01:57:14;15.40;11.20
10245;DHT22;5167;52.164;10.530;2023-04-24T01:59:40;15.30;11.30
10245;DHT22;5167;52.164;10.530;2023-04-24T02:02:05;15.30;11.40
10245;DHT22;5167;52.164;10.530;2023-04-24T02:04:31;15.40;11.60
10245;DHT22;5167;52.164;10.530;2023-04-24T02:06:56;15.30;11.80
10245;DHT22;5167;52.164;10.530;2023-04-24T02:09:22;15.40;12.10
10245;DHT22;5167;52.164;10.530;2023-04-24T02:11:48;15.20;11.80
10245;DHT22;5167;52.164;10.530;2023-04-24T02:14:13;15.20;11.80
10245;DHT22;5167;52.164;10.530;2023-04-24T02:16:39;15.20;12.00
10245;DHT22;5167;52.164;10.530;2023-04-24T02:19:04;15.20;12.20
10245;DHT22;5167;52.164;10.530;2023-04-24T02:21:30;15.20;12.30
10245;DHT22;5167;52.164;10.530;2023-04-24T02:23:58;15.30;12.20
10245;DHT22;5167;52.164;10.530;2023-04-24T02:26:24;15.00;12.00
10245;DHT22;5167;52.164;10.530;2023-04-24T02:28:50;15.10;12.80
10245;DHT22;5167;52.164;10.530;2023-04-24T02:31:15;15.00;12.80
10245;DHT22;5167;52.164;10.530;2023-04-24T02:33:41;15.00;13.00
10245;DHT22;5167;52.164;10.530;2023-04-24T02:36:06;15.00;12.90
10245;DHT22;5167;52.164;10.530;2023-04-24T02:38:32;15.10;12.80
10245;DHT22;5167;52.164;10.530;2023-04-24T02:40:57;15.10;12.30
10245;DHT22;5167;52.164;10.530;2023-04-24T02:43:23;15.20;12.70
10245;DHT22;5167;52.164;10.530;2023-04-24T02:45:48;15.00;13.10
10245;DHT22;5167;52.164;10.530;2023-04-24T02:48:14;14.90;13.10
10245;DHT22;5167;52.164;10.530;2023-04-24T02:50:40;15.00;13.30
10245;DHT22;5167;52.164;10.530;2023-04-24T02:53:05;14.80;13.70
10245;DHT22;5167;52.164;10.530;2023-04-24T02:55:31;14.80;12.90
10245;DHT22;5167;52.164;10.530;2023-04-24T02:57:56;14.80;13.30
10245;DHT22;5167;52.164;10.530;2023-04-24T03:00:22;14.80;13.70
10245;DHT22;5167;52.164;10.530;2023-04-24T03:02:47;14.70;13.40
10245;DHT22;5167;52.164;10.530;2023-04-24T03:05:14;14.70;13.90
10245;DHT22;5167;52.164;10.530;2023-04-24T03:07:40;14.70;13.70
10245;DHT22;5167;52.164;10.530;2023-04-24T03:10:06;14.70;13.60
10245;DHT22;5167;52.164;10.530;2023-04-24T03:12:32;14.70;13.30
10245;DHT22;5167;52.164;10.530;2023-04-24T03:14:57;14.70;13.20
10245;DHT22;5167;52.164;10.530;2023-04-24T03:17:23;14.70;12.60
10245;DHT22;5167;52.164;10.530;2023-04-24T03:19:48;14.70;12.70
10245;DHT22;5167;52.164;10.530;2023-04-24T03:22:14;14.70;12.50
10245;DHT22;5167;52.164;10.530;2023-04-24T03:24:39;14.60;12.20
10245;DHT22;5167;52.164;10.530;2023-04-24T03:27:05;14.60;11.90
10245;DHT22;5167;52.164;10.530;2023-04-24T03:29:31;14.50;11.70
10245;DHT22;5167;52.164;10.530;2023-04-24T03:31:56;14.50;11.40
10245;DHT22;5167;52.164;10.530;2023-04-24T03:34:22;14.50;11.70
10245;DHT22;5167;52.164;10.530;2023-04-24T03:36:47;14.50;11.60
10245;DHT22;5167;52.164;10.530;2023-04-24T03:39:13;14.40;11.20
10245;DHT22;5167;52.164;10.530;2023-04-24T03:41:38;14.40;11.60
10245;DHT22;5167;52.164;10.530;2023-04-24T03:44:04;14.40;11.20
10245;DHT22;5167;52.164;10.530;2023-04-24T03:46:29;14.30;11.40
10245;DHT22;5167;52.164;10.530;2023-04-24T03:48:55;14.30;10.90
10245;DHT22;5167;52.164;10.530;2023-04-24T03:51:20;14.30;11.30
10245;DHT22;5167;52.164;10.530;2023-04-24T03:53:47;14.30;11.50
10245;DHT22;5167;52.164;10.530;2023-04-24T03:56:12;14.30;11.70
10245;DHT22;5167;52.164;10.530;2023-04-24T03:58:38;14.30;12.20
10245;DHT22;5167;52.164;10.530;2023-04-24T04:01:03;14.20;11.90
10245;DHT22;5167;52.164;10.530;2023-04-24T04:03:29;14.20;12.10
10245;DHT22;5167;52.164;10.530;2023-04-24T04:05:54;14.10;12.70
10245;DHT22;5167;52.164;10.530;2023-04-24T04:08:20;14.40;12.80
10245;DHT22;5167;52.164;10.530;2023-04-24T04:10:45;14.10;12.90
10245;DHT22;5167;52.164;10.530;2023-04-24T04:13:11;14.10;12.50
10245;DHT22;5167;52.164;10.530;2023-04-24T04:15:36;14.20;12.50
10245;DHT22;5167;52.164;10.530;2023-04-24T04:18:02;14.10;13.10
10245;DHT22;5167;52.164;10.530;2023-04-24T04:20:27;14.00;13.50
10245;DHT22;5167;52.164;10.530;2023-04-24T04:22:53;14.00;13.20
10245;DHT22;5167;52.164;10.530;2023-04-24T04:25:18;14.00;12.70
10245;DHT22;5167;52.164;10.530;2023-04-24T04:27:45;14.00;13.20
10245;DHT22;5167;52.164;10.530;2023-04-24T04:30:13;14.00;13.40
10245;DHT22;5167;52.164;10.530;2023-04-24T04:32:38;13.90;14.00
10245;DHT22;5167;52.164;10.530;2023-04-24T04:35:04;13.90;13.70
10245;DHT22;5167;52.164;10.530;2023-04-24T04:37:33;14.00;14.10
10245;DHT22;5167;52.164;10.530;2023-04-24T04:39:59;14.00;14.60
10245;DHT22;5167;52.164;10.530;2023-04-24T04:42:26;14.00;14.40
10245;DHT22;5167;52.164;10.530;2023-04-24T04:44:52;13.90;14.80
10245;DHT22;5167;52.164;10.530;2023-04-24T04:47:18;13.90;14.80
10245;DHT22;5167;52.164;10.530;2023-04-24T04:49:45;13.90;14.90
10245;DHT22;5167;52.164;10.530;2023-04-24T04:52:11;13.90;15.40
10245;DHT22;5167;52.164;10.530;2023-04-24T04:54:36;14.00;16.00
10245;DHT22;5167;52.164;10.530;2023-04-24T04:57:02;14.00;15.40
10245;DHT22;5167;52.164;10.530;2023-04-24T04:59:27;14.00;15.60
10245;DHT22;5167;52.164;10.530;2023-04-24T05:01:53;13.90;15.60
10245;DHT22;5167;52.164;10.530;2023-04-24T05:04:18;13.90;14.30
10245;DHT22;5167;52.164;10.530;2023-04-24T05:06:44;13.90;15.80
10245;DHT22;5167;52.164;10.530;2023-04-24T05:09:09;13.90;15.90
10245;DHT22;5167;52.164;10.530;2023-04-24T05:11:35;13.90;15.50
10245;DHT22;5167;52.164;10.530;2023-04-24T05:14:00;14.00;16.00
10245;DHT22;5167;52.164;10.530;2023-04-24T05:16:26;13.90;15.70
10245;DHT22;5167;52.164;10.530;2023-04-24T05:18:52;13.90;16.20
10245;DHT22;5167;52.164;10.530;2023-04-24T05:21:17;14.10;15.80
10245;DHT22;5167;52.164;10.530;2023-04-24T05:23:43;13.90;15.30
10245;DHT22;5167;52.164;10.530;2023-04-24T05:26:08;13.90;15.00
10245;DHT22;5167;52.164;10.530;2023-04-24T05:28:34;13.90;14.70
10245;DHT22;5167;52.164;10.530;2023-04-24T05:31:02;14.00;14.80
10245;DHT22;5167;52.164;10.530;2023-04-24T05:33:27;13.80;14.90
10245;DHT22;5167;52.164;10.530;2023-04-24T05:35:53;13.80;15.60
10245;DHT22;5167;52.164;10.530;2023-04-24T05:38:19;13.80;15.10
10245;DHT22;5167;52.164;10.530;2023-04-24T05:40:45;13.90;15.90
10245;DHT22;5167;52.164;10.530;2023-04-24T05:43:11;13.80;15.30
10245;DHT22;5167;52.164;10.530;2023-04-24T05:45:38;13.90;15.70
10245;DHT22;5167;52.164;10.530;2023-04-24T05:48:03;14.00;15.20
10245;DHT22;5167;52.164;10.530;2023-04-24T05:50:29;13.90;16.20
10245;DHT22;5167;52.164;10.530;2023-04-24T05:52:55;14.00;15.90
10245;DHT22;5167;52.164;10.530;2023-04-24T05:55:21;13.90;15.70
10245;DHT22;5167;52.164;10.530;2023-04-24T05:57:47;14.00;16.40
10245;DHT22;5167;52.164;10.530;2023-04-24T06:00:12;14.00;16.20
10245;DHT22;5167;52.164;10.530;2023-04-24T06:02:38;14.10;16.60
10245;DHT22;5167;52.164;10.530;2023-04-24T06:05:04;14.20;16.90
10245;DHT22;5167;52.164;10.530;2023-04-24T06:07:31;14.20;16.30
10245;DHT22;5167;52.164;10.530;2023-04-24T06:09:56;14.40;16.70
10245;DHT22;5167;52.164;10.530;2023-04-24T06:12:22;14.40;17.00
10245;DHT22;5167;52.164;10.530;2023-04-24T06:14:48;14.60;17.50
10245;DHT22;5167;52.164;10.530;2023-04-24T06:17:14;14.70;17.50
10245;DHT22;5167;52.164;10.530;2023-04-24T06:19:39;14.80;16.80
10245;DHT22;5167;52.164;10.530;2023-04-24T06:22:05;14.80;16.70
10245;DHT22;5167;52.164;10.530;2023-04-24T06:24:31;14.90;16.60
10245;DHT22;5167;52.164;10.530;2023-04-24T06:26:56;14.90;16.50
10245;DHT22;5167;52.164;10.530;2023-04-24T06:29:24;15.00;16.40
10245;DHT22;5167;52.164;10.530;2023-04-24T06:31:49;14.90;15.60
10245;DHT22;5167;52.164;10.530;2023-04-24T06:34:15;15.00;15.60
10245;DHT22;5167;52.164;10.530;2023-04-24T06:36:41;15.00;15.40
10245;DHT22;5167;52.164;10.530;2023-04-24T06:39:06;14.90;15.00
10245;DHT22;5167;52.164;10.530;2023-04-24T06:41:32;14.90;14.70
10245;DHT22;5167;52.164;10.530;2023-04-24T06:43:57;14.80;15.10
10245;DHT22;5167;52.164;10.530;2023-04-24T06:46:23;14.80;15.40
10245;DHT22;5167;52.164;10.530;2023-04-24T06:48:51;14.80;14.70
10245;DHT22;5167;52.164;10.530;2023-04-24T06:51:17;14.90;15.00
10245;DHT22;5167;52.164;10.530;2023-04-24T06:53:43;14.90;14.90
10245;DHT22;5167;52.164;10.530;2023-04-24T06:56:09;14.80;15.80
10245;DHT22;5167;52.164;10.530;2023-04-24T06:58:34;14.80;15.60
10245;DHT22;5167;52.164;10.530;2023-04-24T07:01:00;14.90;15.80
10245;DHT22;5167;52.164;10.530;2023-04-24T07:03:25;15.00;16.50
10245;DHT22;5167;52.164;10.530;2023-04-24T07:05:51;15.00;16.50
10245;DHT22;5167;52.164;10.530;2023-04-24T07:08:16;15.20;15.40
10245;DHT22;5167;52.164;10.530;2023-04-24T07:10:43;15.30;15.20
10245;DHT22;5167;52.164;10.530;2023-04-24T07:13:09;15.50;13.70
10245;DHT22;5167;52.164;10.530;2023-04-24T07:15:35;15.70;13.50
10245;DHT22;5167;52.164;10.530;2023-04-24T07:18:00;15.90;11.70
10245;DHT22;5167;52.164;10.530;2023-04-24T07:20:26;15.90;11.60
10245;DHT22;5167;52.164;10.530;2023-04-24T07:22:51;16.00;10.90
10245;DHT22;5167;52.164;10.530;2023-04-24T07:25:19;16.00;10.00
10245;DHT22;5167;52.164;10.530;2023-04-24T07:27:45;16.00;8.80
10245;DHT22;5167;52.164;10.530;2023-04-24T07:30:11;15.90;10.00
10245;DHT22;5167;52.164;10.530;2023-04-24T07:32:37;16.00;9.50
10245;DHT22;5167;52.164;10.530;2023-04-24T07:35:02;16.20;7.20
10245;DHT22;5167;52.164;10.530;2023-04-24T07:37:28;15.70;6.70
10245;DHT22;5167;52.164;10.530;2023-04-24T07:39:54;15.40;7.50
10245;DHT22;5167;52.164;10.530;2023-04-24T07:42:20;15.20;9.00
10245;DHT22;5167;52.164;10.530;2023-04-24T07:44:45;15.00;10.20
10245;DHT22;5167;52.164;10.530;2023-04-24T07:47:13;14.90;10.60
10245;DHT22;5167;52.164;10.530;2023-04-24T07:49:41;14.70;10.50
10245;DHT22;5167;52.164;10.530;2023-04-24T07:52:07;14.60;8.60
10245;DHT22;5167;52.164;10.530;2023-04-24T07:54:32;14.50;9.30
10245;DHT22;5167;52.164;10.530;2023-04-24T07:56:58;14.40;11.00
10245;DHT22;5167;52.164;10.530;2023-04-24T07:59:23;14.40;13.10
10245;DHT22;5167;52.164;10.530;2023-04-24T08:01:49;14.20;13.80
10245;DHT22;5167;52.164;10.530;2023-04-24T08:04:15;14.30;14.70
10245;DHT22;5167;52.164;10.530;2023-04-24T08:06:40;14.20;15.80
10245;DHT22;5167;52.164;10.530;2023-04-24T08:09:06;14.20;16.20
10245;DHT22;5167;52.164;10.530;2023-04-24T08:11:31;14.20;16.00
10245;DHT22;5167;52.164;10.530;2023-04-24T08:13:58;14.30;14.90
10245;DHT22;5167;52.164;10.530;2023-04-24T08:16:23;14.20;14.20
10245;DHT22;5167;52.164;10.530;2023-04-24T08:18:49;14.30;14.80
10245;DHT22;5167;52.164;10.530;2023-04-24T08:21:15;14.40;15.10
10245;DHT22;5167;52.164;10.530;2023-04-24T08:23:43;14.60;14.20
10245;DHT22;5167;52.164;10.530;2023-04-24T08:26:08;14.50;13.80
10245;DHT22;5167;52.164;10.530;2023-04-24T08:28:34;14.80;14.90
10245;DHT22;5167;52.164;10.530;2023-04-24T08:30:59;15.30;14.10
10245;DHT22;5167;52.164;10.530;2023-04-24T08:33:25;15.40;13.90
10245;DHT22;5167;52.164;10.530;2023-04-24T08:35:50;15.60;10.50
10245;DHT22;5167;52.164;10.530;2023-04-24T08:38:16;16.00;8.30
10245;DHT22;5167;52.164;10.530;2023-04-24T08:40:42;16.20;6.80
10245;DHT22;5167;52.164;10.530;2023-04-24T08:43:08;16.50;6.50
10245;DHT22;5167;52.164;10.530;2023-04-24T08:45:34;16.50;5.00
10245;DHT22;5167;52.164;10.530;2023-04-24T08:48:00;16.80;5.00
10245;DHT22;5167;52.164;10.530;2023-04-24T08:50:27;16.90;5.00
10245;DHT22;5167;52.164;10.530;2023-04-24T08:52:52;17.00;5.00
10245;DHT22;5167;52.164;10.530;2023-04-24T08:55:20;17.10;5.00
10245;DHT22;5167;52.164;10.530;2023-04-24T08:57:52;17.30;5.00
10245;DHT22;5167;52.164;10.530;2023-04-24T09:00:20;17.30;5.00
10245;DHT22;5167;52.164;10.530;2023-04-24T09:02:47;17.40;5.00
10245;DHT22;5167;52.164;10.530;2023-04-24T09:05:14;17.60;5.00
10245;DHT22;5167;52.164;10.530;2023-04-24T09:07:53;17.60;5.00
10245;DHT22;5167;52.164;10.530;2023-04-24T09:10:20;17.70;5.00
10245;DHT22;5167;52.164;10.530;2023-04-24T09:12:46;17.60;5.00
10245;DHT22;5167;52.164;10.530;2023-04-24T09:15:12;17.60;5.00
10245;DHT22;5167;52.164;10.530;2023-04-24T09:17:38;17.50;5.00
10245;DHT22;5167;52.164;10.530;2023-04-24T09:20:04;17.50;5.00
10245;DHT22;5167;52.164;10.530;2023-04-24T09:22:30;17.50;5.00
10245;DHT22;5167;52.164;10.530;2023-04-24T09:25:08;17.80;5.00
10245;DHT22;5167;52.164;10.530;2023-04-24T09:27:34;17.60;5.00
10245;DHT22;5167;52.164;10.530;2023-04-24T09:30:01;17.70;5.00
10245;DHT22;5167;52.164;10.530;2023-04-24T09:32:27;17.70;5.00
10245;DHT22;5167;52.164;10.530;2023-04-24T09:35:14;17.60;5.00
10245;DHT22;5167;52.164;10.530;2023-04-24T09:37:45;17.60;5.00
10245;DHT22;5167;52.164;10.530;2023-04-24T09:40:15;17.50;5.00
10245;DHT22;5167;52.164;10.530;2023-04-24T09:42:46;17.40;5.00
10245;DHT22;5167;52.164;10.530;2023-04-24T09:45:12;17.30;5.00
10245;DHT22;5167;52.164;10.530;2023-04-24T09:47:38;17.20;5.00
10245;DHT22;5167;52.164;10.530;2023-04-24T09:50:15;17.10;5.00
10245;DHT22;5167;52.164;10.530;2023-04-24T09:52:45;17.00;5.00
10245;DHT22;5167;52.164;10.530;2023-04-24T09:55:21;16.80;5.00
10245;DHT22;5167;52.164;10.530;2023-04-24T09:57:51;16.80;5.00
10245;DHT22;5167;52.164;10.530;2023-04-24T10:00:25;16.70;5.00
10245;DHT22;5167;52.164;10.530;2023-04-24T10:03:02;16.60;5.00
10245;DHT22;5167;52.164;10.530;2023-04-24T10:05:30;16.60;5.00
10245;DHT22;5167;52.164;10.530;2023-04-24T10:07:59;16.60;5.00
10245;DHT22;5167;52.164;10.530;2023-04-24T10:10:25;16.70;5.00
10245;DHT22;5167;52.164;10.530;2023-04-24T10:12:51;16.60;5.00
10245;DHT22;5167;52.164;10.530;2023-04-24T10:15:16;16.60;5.00
10245;DHT22;5167;52.164;10.530;2023-04-24T10:17:49;16.60;5.00
10245;DHT22;5167;52.164;10.530;2023-04-24T10:20:22;16.50;5.00
10245;DHT22;5167;52.164;10.530;2023-04-24T10:22:50;16.50;5.00
10245;DHT22;5167;52.164;10.530;2023-04-24T10:25:20;16.70;5.00
10245;DHT22;5167;52.164;10.530;2023-04-24T10:27:47;16.40;5.00
10245;DHT22;5167;52.164;10.530;2023-04-24T10:30:13;16.50;5.00
10245;DHT22;5167;52.164;10.530;2023-04-24T10:32:39;16.40;5.00
10245;DHT22;5167;52.164;10.530;2023-04-24T10:35:07;16.30;5.00
10245;DHT22;5167;52.164;10.530;2023-04-24T10:38:06;16.30;5.00
10245;DHT22;5167;52.164;10.530;2023-04-24T10:40:33;16.30;5.00
10245;DHT22;5167;52.164;10.530;2023-04-24T10:43:02;16.30;5.00
10245;DHT22;5167;52.164;10.530;2023-04-24T10:45:27;16.20;5.00
10245;DHT22;5167;52.164;10.530;2023-04-24T10:47:57;16.20;5.00
10245;DHT22;5167;52.164;10.530;2023-04-24T10:50:25;16.30;5.00
10245;DHT22;5167;52.164;10.530;2023-04-24T10:52:51;16.30;5.00
10245;DHT22;5167;52.164;10.530;2023-04-24T10:55:41;16.30;5.00
10245;DHT22;5167;52.164;10.530;2023-04-24T10:58:07;16.20;5.00
10245;DHT22;5167;52.164;10.530;2023-04-24T11:00:33;16.20;5.00
10245;DHT22;5167;52.164;10.530;2023-04-24T11:03:04;16.20;5.00
10245;DHT22;5167;52.164;10.530;2023-04-24T11:05:57;16.10;5.00
10245;DHT22;5167;52.164;10.530;2023-04-24T11:08:25;16.20;5.00
10245;DHT22;5167;52.164;10.530;2023-04-24T11:10:57;16.20;5.00
10245;DHT22;5167;52.164;10.530;2023-04-24T11:13:27;16.20;5.00
10245;DHT22;5167;52.164;10.530;2023-04-24T11:16:34;16.30;5.00
10245;DHT22;5167;52.164;10.530;2023-04-24T11:21:45;16.70;5.00
10245;DHT22;5167;52.164;10.530;2023-04-24T11:27:11;17.00;5.00
10245;DHT22;5167;52.164;10.530;2023-04-24T11:29:48;17.00;5.00
10245;DHT22;5167;52.164;10.530;2023-04-24T11:32:29;17.00;5.00
10245;DHT22;5167;52.164;10.530;2023-04-24T11:34:57;17.00;5.00
10245;DHT22;5167;52.164;10.530;2023-04-24T11:37:26;17.00;5.00
10245;DHT22;5167;52.164;10.530;2023-04-24T11:39:57;16.90;5.00
10245;DHT22;5167;52.164;10.530;2023-04-24T11:42:23;16.70;5.00
10245;DHT22;5167;52.164;10.530;2023-04-24T11:44:51;16.60;5.00
10245;DHT22;5167;52.164;10.530;2023-04-24T11:47:17;16.60;5.00
10245;DHT22;5167;52.164;10.530;2023-04-24T11:49:43;16.80;5.00
10245;DHT22;5167;52.164;10.530;2023-04-24T11:52:08;16.60;5.00
10245;DHT22;5167;52.164;10.530;2023-04-24T11:54:34;16.60;5.00
10245;DHT22;5167;52.164;10.530;2023-04-24T11:57:04;16.60;5.00
10245;DHT22;5167;52.164;10.530;2023-04-24T11:59:35;16.50;5.00
10245;DHT22;5167;52.164;10.530;2023-04-24T12:02:02;16.40;5.00
10245;DHT22;5167;52.164;10.530;2023-04-24T12:04:38;16.50;5.00
10245;DHT22;5167;52.164;10.530;2023-04-24T12:07:04;16.60;5.00
10245;DHT22;5167;52.164;10.530;2023-04-24T12:09:57;16.70;5.00
10245;DHT22;5167;52.164;10.530;2023-04-24T12:12:28;16.90;5.00
10245;DHT22;5167;52.164;10.530;2023-04-24T12:14:55;17.00;5.00
10245;DHT22;5167;52.164;10.530;2023-04-24T12:17:31;17.40;5.00
10245;DHT22;5167;52.164;10.530;2023-04-24T12:20:05;17.30;5.00
10245;DHT22;5167;52.164;10.530;2023-04-24T12:22:43;17.30;5.00
10245;DHT22;5167;52.164;10.530;2023-04-24T12:25:11;17.30;5.00
10245;DHT22;5167;52.164;10.530;2023-04-24T12:27:37;17.20;5.00
10245;DHT22;5167;52.164;10.530;2023-04-24T12:30:04;17.10;5.00
10245;DHT22;5167;52.164;10.530;2023-04-24T12:32:30;17.00;5.00
10245;DHT22;5167;52.164;10.530;2023-04-24T12:34:56;17.00;5.00
10245;DHT22;5167;52.164;10.530;2023-04-24T12:37:26;17.00;5.00
10245;DHT22;5167;52.164;10.530;2023-04-24T12:40:09;17.00;5.00
10245;DHT22;5167;52.164;10.530;2023-04-24T12:42:36;17.00;5.00
10245;DHT22;5167;52.164;10.530;2023-04-24T12:45:06;17.10;5.00
10245;DHT22;5167;52.164;10.530;2023-04-24T12:47:34;17.10;5.00
10245;DHT22;5167;52.164;10.530;2023-04-24T12:50:00;17.10;5.00
10245;DHT22;5167;52.164;10.530;2023-04-24T12:52:27;17.10;5.00
10245;DHT22;5167;52.164;10.530;2023-04-24T12:54:55;17.30;5.00
10245;DHT22;5167;52.164;10.530;2023-04-24T12:57:22;17.00;5.00
10245;DHT22;5167;52.164;10.530;2023-04-24T12:59:47;16.80;5.00
10245;DHT22;5167;52.164;10.530;2023-04-24T13:02:13;16.70;5.00
10245;DHT22;5167;52.164;10.530;2023-04-24T13:04:39;16.60;5.00
10245;DHT22;5167;52.164;10.530;2023-04-24T13:07:05;16.50;5.00
10245;DHT22;5167;52.164;10.530;2023-04-24T13:09:31;16.60;5.00
10245;DHT22;5167;52.164;10.530;2023-04-24T13:11:56;16.60;5.00
10245;DHT22;5167;52.164;10.530;2023-04-24T13:14:23;16.70;5.00
10245;DHT22;5167;52.164;10.530;2023-04-24T13:16:49;16.40;5.00
10245;DHT22;5167;52.164;10.530;2023-04-24T13:19:14;16.40;5.00
10245;DHT22;5167;52.164;10.530;2023-04-24T13:21:40;16.30;5.00
10245;DHT22;5167;52.164;10.530;2023-04-24T13:24:06;16.30;5.00
10245;DHT22;5167;52.164;10.530;2023-04-24T13:26:33;16.30;5.00
10245;DHT22;5167;52.164;10.530;2023-04-24T13:28:58;16.20;5.00
10245;DHT22;5167;52.164;10.530;2023-04-24T13:31:24;16.10;5.00
10245;DHT22;5167;52.164;10.530;2023-04-24T13:33:49;16.10;5.00
10245;DHT22;5167;52.164;10.530;2023-04-24T13:36:14;16.00;5.00
10245;DHT22;5167;52.164;10.530;2023-04-24T13:38:41;16.00;5.00
10245;DHT22;5167;52.164;10.530;2023-04-24T13:41:07;16.00;5.00
10245;DHT22;5167;52.164;10.530;2023-04-24T13:43:32;15.80;5.00
10245;DHT22;5167;52.164;10.530;2023-04-24T13:45:58;15.70;5.00
10245;DHT22;5167;52.164;10.530;2023-04-24T13:48:24;15.60;5.00
10245;DHT22;5167;52.164;10.530;2023-04-24T13:50:51;15.50;5.00
10245;DHT22;5167;52.164;10.530;2023-04-24T13:53:16;15.40;5.00
10245;DHT22;5167;52.164;10.530;2023-04-24T13:55:42;15.40;5.00
10245;DHT22;5167;52.164;10.530;2023-04-24T13:58:07;15.70;5.00
10245;DHT22;5167;52.164;10.530;2023-04-24T14:00:33;15.40;5.00
10245;DHT22;5167;52.164;10.530;2023-04-24T14:02:58;15.30;5.00
10245;DHT22;5167;52.164;10.530;2023-04-24T14:05:24;15.20;5.00
10245;DHT22;5167;52.164;10.530;2023-04-24T14:07:50;15.20;5.00
10245;DHT22;5167;52.164;10.530;2023-04-24T14:10:16;15.10;5.00
10245;DHT22;5167;52.164;10.530;2023-04-24T14:12:41;15.10;5.00
10245;DHT22;5167;52.164;10.530;2023-04-24T14:15:07;15.20;5.00
10245;DHT22;5167;52.164;10.530;2023-04-24T14:17:33;14.90;5.00
10245;DHT22;5167;52.164;10.530;2023-04-24T14:19:59;14.70;5.00
10245;DHT22;5167;52.164;10.530;2023-04-24T14:22:26;14.80;5.00
10245;DHT22;5167;52.164;10.530;2023-04-24T14:24:51;14.60;5.00
10245;DHT22;5167;52.164;10.530;2023-04-24T14:27:17;14.70;5.00
10245;DHT22;5167;52.164;10.530;2023-04-24T14:29:42;14.40;5.00
10245;DHT22;5167;52.164;10.530;2023-04-24T14:32:08;14.50;5.00
10245;DHT22;5167;52.164;10.530;2023-04-24T14:34:34;14.50;5.00
10245;DHT22;5167;52.164;10.530;2023-04-24T14:37:00;14.20;5.00
10245;DHT22;5167;52.164;10.530;2023-04-24T14:39:25;14.30;5.00
10245;DHT22;5167;52.164;10.530;2023-04-24T14:41:51;14.00;5.00
10245;DHT22;5167;52.164;10.530;2023-04-24T14:44:16;14.10;5.00
10245;DHT22;5167;52.164;10.530;2023-04-24T14:46:42;13.90;5.00
10245;DHT22;5167;52.164;10.530;2023-04-24T14:49:08;14.20;5.00
10245;DHT22;5167;52.164;10.530;2023-04-24T14:51:35;13.80;5.00
10245;DHT22;5167;52.164;10.530;2023-04-24T14:54:01;13.80;5.00
10245;DHT22;5167;52.164;10.530;2023-04-24T14:56:26;13.70;5.00
10245;DHT22;5167;52.164;10.530;2023-04-24T14:58:52;13.80;5.00
10245;DHT22;5167;52.164;10.530;2023-04-24T15:01:18;13.80;5.00
10245;DHT22;5167;52.164;10.530;2023-04-24T15:03:43;13.80;5.00
10245;DHT22;5167;52.164;10.530;2023-04-24T15:06:09;13.80;5.00
10245;DHT22;5167;52.164;10.530;2023-04-24T15:08:35;13.70;5.00
10245;DHT22;5167;52.164;10.530;2023-04-24T15:11:01;13.70;5.00
10245;DHT22;5167;52.164;10.530;2023-04-24T15:13:26;13.60;5.00
10245;DHT22;5167;52.164;10.530;2023-04-24T15:15:52;13.60;5.00
10245;DHT22;5167;52.164;10.530;2023-04-24T15:18:17;13.60;5.00
10245;DHT22;5167;52.164;10.530;2023-04-24T15:20:43;13.60;5.00
10245;DHT22;5167;52.164;10.530;2023-04-24T15:23:09;13.70;5.00
10245;DHT22;5167;52.164;10.530;2023-04-24T15:25:35;13.70;5.00
10245;DHT22;5167;52.164;10.530;2023-04-24T15:28:00;13.80;5.00
10245;DHT22;5167;52.164;10.530;2023-04-24T15:30:26;14.00;5.00
10245;DHT22;5167;52.164;10.530;2023-04-24T15:32:52;13.80;5.00
10245;DHT22;5167;52.164;10.530;2023-04-24T15:35:18;13.90;5.00
10245;DHT22;5167;52.164;10.530;2023-04-24T15:37:43;13.80;5.70
10245;DHT22;5167;52.164;10.530;2023-04-24T15:40:10;13.70;6.80
10245;DHT22;5167;52.164;10.530;2023-04-24T15:42:38;13.70;6.90